KVYS/VYS METAR and TAF weather

Enter ICAO airport designator
Station Type Date Time Source
KVYS METAR 2020/08/12 18:15 UTC NOAA

KVYS 121815Z AUTO 07003KT 10SM CLR 27/14 A3010 RMK AO2 T02740139


Station Type Date Time Source
KVYS Decoded METAR 2020/08/12 18:15 UTC NOAA

Peru, Illinois Valley Regional-Walter A Duncan Field Airport, IL, United States (KVYS) 41-21-07N 089-09-11W
Aug 12, 2020 - 02:15 PM EDT / 2020.08.12 1815 UTC
Wind: from the ENE (070 degrees) at 3 MPH (3 KT):0
Visibility: 10 mile(s):0
Sky conditions: clear
Temperature: 81.3 F (27.4 C)
Dew Point: 57.0 F (13.9 C)
Relative Humidity: 43%
Pressure (altimeter): 30.1 in. Hg (1019 hPa)
ob: KVYS 121815Z AUTO 07003KT 10SM CLR 27/14 A3010 RMK AO2 T02740139
cycle: 18

Station Type Date Time Source
KVYS TAF UTC NOAA

Error!

Example: see airport list